Etusivu
METAR-TAF:

METAR-TAF

Lentoasemat :

Mitiga International Airport

Tripoli, Libya

Leveyspiiri: 32-54N, Pituuspiiri: 13-17E, korkeus merenpinnasta: 11 m

METAR: puuttuu

Aika: 01:14 (23:14 UTC)

Sääennuste

Tämä raportti tehtiin 6 tuntia ja 14 minuuttia sitten, kello 17.00 UTC
Ennuste voimassa 07. päivästä klo 18 UTC - 08. päivään klo 18 UTC
Tuuli 10 kn pohjoisesta/koillisesta
Näkyvyys: 7000 m
Hajanaisia pilviä 3000 ft:n korkeudessa
Hajanaisia pilviä 8000 ft:n korkeudessa
Tulossa
08. päivästä klo 02 UTC - 08. päivään klo 04 UTC
Tuuli 2 kn eri suunnista
Tulossa
08. päivästä klo 08 UTC - 08. päivään klo 10 UTC
Tuuli 8 kn idästä

TAF: HLLM 071700Z 0718/0818 03010KT 7000 SCT030 SCT080 BECMG 0802/0804 VRB02KT BECMG 0808/0810 08008KT

Säähavainnot ja -ennusteet yli 4000 lentoasemalta (METAR- ja TAF-raportit).

Käytössä olevat sääasemat on merkitty karttaan keltaisilla ja punaisilla pisteillä.

Aseta hiiri pisteen päälle nähdäksesi sääaseman nimen.

Klikkaa sitten nähdäksesi säähavainnot ja -ennusteet.

Kartan vaihtaminen: klikkaa mustalla rastilla varustettuja vihreitä pisteitä, niin voit zoomata sisään; viivalla varustettua vihreää pistettä, niin voit zoomata ulos tai vihreitä nuolia, niin pääset viereisille kartoille.


METAR-TAF: